Terminal Aerodrome Forecast
Issued by NWS

Current Version | Previous Version | Text Only | Print | Product List | Glossary On
Versions: 1 2 3 4 5 6 7 8 9 10 11 12 13
000
FTUS42 KTAE 290520
TAFDHN
TAF
KDHN 290520Z 2906/3006 12006KT P6SM BKN040 OVC070
      TEMPO 2906/2907 3SM RA BKN025
     FM291300 11005KT P6SM BKN020
     FM291700 18006KT 3SM TSRA BKN025CB
     FM292200 14004KT P6SM BKN040 OVC070=

USA.gov is the U.S. government's official web portal to all federal, state and local government web resources and services.